Time;durP1;ratioP1;P1;durP2;ratioP2;P2;SDS_P1;SDS_P2;PMS_P1;PMS_P2;Temp;Humidity;BMP_temperature;BMP_pressure;BME280_temperature;BME280_humidity;BME280_pressure;Samples;Min_cycle;Max_cycle;Signal;HPM_P1;HPM_P2
2022/04/03 00:00:37;;;;;;;8.75;5.30;;;-2.90;99.90;;;;;;5115760;27;20047;-88
2022/04/03 00:03:08;;;;;;;13.45;5.30;;;-2.90;99.90;;;;;;5116445;27;20039;-88
2022/04/03 00:05:43;;;;;;;8.57;4.63;;;-2.90;99.90;;;;;;5115754;27;20047;-87
2022/04/03 00:08:12;;;;;;;8.27;4.93;;;-2.80;99.90;;;;;;5133237;27;20053;-88
2022/04/03 00:10:39;;;;;;;8.05;4.60;;;-2.70;99.90;;;;;;5098820;27;20503;-87
2022/04/03 00:13:17;;;;;;;10.05;3.80;;;-2.50;99.90;;;;;;5116005;27;20147;-87
2022/04/03 00:15:50;;;;;;;10.35;4.88;;;-2.60;99.90;;;;;;5098868;27;20054;-88
2022/04/03 00:18:18;;;;;;;8.57;4.35;;;-2.60;99.90;;;;;;5116158;27;20050;-87
2022/04/03 00:20:46;;;;;;;8.20;4.00;;;-2.40;99.90;;;;;;5098505;27;20065;-88
2022/04/03 00:23:12;;;;;;;9.43;4.28;;;-2.40;99.90;;;;;;5133057;27;20147;-87
2022/04/03 00:25:38;;;;;;;8.23;4.15;;;-2.40;99.90;;;;;;5098101;27;20060;-88
2022/04/03 00:28:07;;;;;;;6.93;3.92;;;-2.40;99.90;;;;;;5115118;27;20047;-87
2022/04/03 00:30:37;;;;;;;7.43;4.40;;;-2.50;99.90;;;;;;5097884;27;20608;-88
2022/04/03 00:33:08;;;;;;;10.38;4.43;;;-2.60;99.90;;;;;;5115513;27;20050;-87
2022/04/03 00:35:37;;;;;;;7.20;4.32;;;-2.60;99.90;;;;;;5132057;27;20057;-87
2022/04/03 00:38:06;;;;;;;6.78;4.35;;;-2.60;99.90;;;;;;5115574;27;20078;-87
2022/04/03 00:40:31;;;;;;;5.13;3.63;;;-2.60;99.90;;;;;;5114721;27;20050;-88
2022/04/03 00:42:57;;;;;;;7.88;4.47;;;-2.60;99.90;;;;;;5115961;27;20135;-87
2022/04/03 00:45:33;;;;;;;;;;;;;;;;;;;;;
2022/04/03 00:47:59;;;;;;;;;;;-2.70;99.90;;;;;;5112040;28;20718;-86
2022/04/03 00:50:27;;;;;;;9.47;4.27;;;-2.60;99.90;;;;;;5094519;28;19920;-87
2022/04/03 00:52:53;;;;;;;7.68;3.60;;;-2.70;99.90;;;;;;5073984;28;20056;-88
2022/04/03 00:55:18;;;;;;;8.38;4.13;;;-2.70;99.90;;;;;;5108853;27;20085;-87
2022/04/03 00:57:45;;;;;;;11.25;3.67;;;-2.70;99.90;;;;;;5117879;27;20043;-87
2022/04/03 01:00:18;;;;;;;6.13;3.60;;;-2.70;99.90;;;;;;5111408;27;20126;-87
2022/04/03 01:02:46;;;;;;;9.82;3.50;;;-2.80;99.90;;;;;;5117415;27;20058;-87
2022/04/03 01:05:12;;;;;;;7.45;3.92;;;-2.70;99.90;;;;;;5135208;27;20106;-87
2022/04/03 01:07:40;;;;;;;8.50;3.88;;;-2.70;99.90;;;;;;5134603;27;20046;-86
2022/04/03 01:10:09;;;;;;;8.43;3.35;;;-2.70;99.90;;;;;;5135164;27;20051;-87
2022/04/03 01:12:49;;;;;;;4.40;2.70;;;-2.70;99.90;;;;;;5117526;27;20476;-87
2022/04/03 01:15:19;;;;;;;4.45;3.05;;;-2.60;99.90;;;;;;5086316;27;20041;-87
2022/04/03 01:17:47;;;;;;;6.60;3.50;;;-2.50;99.90;;;;;;5117273;27;20043;-87
2022/04/03 01:20:21;;;;;;;7.72;3.67;;;-2.50;99.90;;;;;;5117921;27;20050;-87
2022/04/03 01:22:49;;;;;;;9.70;3.50;;;-2.50;99.90;;;;;;5117336;27;20133;-87
2022/04/03 01:25:15;;;;;;;5.05;2.95;;;-2.40;99.90;;;;;;5100617;27;20376;-87
2022/04/03 01:27:41;;;;;;;6.47;3.15;;;-2.40;99.90;;;;;;5116739;27;20047;-86
2022/04/03 01:30:10;;;;;;;6.63;3.10;;;-2.30;99.90;;;;;;5134094;27;20106;-87
2022/04/03 01:32:39;;;;;;;8.20;3.63;;;-2.40;99.90;;;;;;5116743;27;20039;-88
2022/04/03 01:35:06;;;;;;;6.22;3.28;;;-2.40;99.90;;;;;;5117309;27;20039;-87
2022/04/03 01:37:34;;;;;;;4.53;3.28;;;-2.50;99.90;;;;;;5117038;27;20475;-86
2022/04/03 01:40:00;;;;;;;9.00;3.20;;;-2.60;99.90;;;;;;5116488;27;20058;-86
2022/04/03 01:42:29;;;;;;;4.63;2.97;;;-2.50;99.90;;;;;;5117337;27;20049;-88
2022/04/03 01:44:57;;;;;;;6.55;3.42;;;-2.50;99.90;;;;;;5116676;27;20046;-87
2022/04/03 01:47:23;;;;;;;5.68;3.65;;;-2.60;99.90;;;;;;5099723;27;20046;-88
2022/04/03 01:49:49;;;;;;;5.50;3.30;;;-2.60;99.90;;;;;;5099823;27;20499;-86
2022/04/03 01:52:17;;;;;;;6.63;3.40;;;-2.60;99.90;;;;;;5096553;27;20047;-87
2022/04/03 01:54:48;;;;;;;8.68;3.30;;;-2.60;99.90;;;;;;5095781;27;20141;-87
2022/04/03 01:57:14;;;;;;;6.85;3.45;;;-2.60;99.90;;;;;;5079874;27;20047;-86
2022/04/03 01:59:39;;;;;;;6.22;3.53;;;-2.60;99.90;;;;;;5095793;27;20272;-86
2022/04/03 02:02:07;;;;;;;5.68;3.72;;;-2.50;99.90;;;;;;5113652;27;20094;-87
2022/04/03 02:04:40;;;;;;;6.93;3.60;;;-2.50;99.90;;;;;;5096407;27;20818;-86
2022/04/03 02:07:09;;;;;;;6.68;3.30;;;-2.40;99.90;;;;;;5113507;27;20051;-88
2022/04/03 02:09:35;;;;;;;5.25;3.15;;;-2.30;99.90;;;;;;5110092;27;20051;-86
2022/04/03 02:12:00;;;;;;;5.95;3.53;;;-2.30;99.90;;;;;;5116711;27;20062;-86
2022/04/03 02:14:26;;;;;;;7.22;3.70;;;-2.30;99.90;;;;;;5116825;27;20049;-88
2022/04/03 02:16:58;;;;;;;7.75;3.83;;;-2.20;99.90;;;;;;5115993;27;20096;-87
2022/04/03 02:19:28;;;;;;;8.45;3.53;;;-2.20;99.90;;;;;;5116299;27;20042;-85
2022/04/03 02:21:57;;;;;;;6.03;3.78;;;-2.10;99.90;;;;;;5115995;27;20039;-87
2022/04/03 02:24:25;;;;;;;5.03;3.42;;;-2.20;99.90;;;;;;5116406;27;20046;-87
2022/04/03 02:26:51;;;;;;;5.88;3.60;;;-2.10;99.90;;;;;;5116034;27;20043;-88
2022/04/03 02:29:19;;;;;;;7.53;3.75;;;-2.10;99.90;;;;;;5099367;27;20046;-87
2022/04/03 02:31:48;;;;;;;6.60;3.65;;;-2.10;99.90;;;;;;5115344;27;20098;-87
2022/04/03 02:34:17;;;;;;;6.80;4.10;;;-2.10;99.90;;;;;;5116413;27;20047;-87
2022/04/03 02:36:43;;;;;;;5.25;3.30;;;-2.00;99.90;;;;;;5115337;27;20039;-87
2022/04/03 02:39:10;;;;;;;6.38;4.22;;;-2.10;99.90;;;;;;5133670;27;20062;-87
2022/04/03 02:41:39;;;;;;;10.00;4.03;;;-2.10;99.90;;;;;;5133032;27;20099;-86
2022/04/03 02:44:08;;;;;;;5.75;3.83;;;-2.10;99.90;;;;;;5099441;27;20101;-87
2022/04/03 02:46:34;;;;;;;7.35;4.15;;;-2.10;99.90;;;;;;5100008;27;20082;-86
2022/04/03 02:49:00;;;;;;;10.10;3.92;;;-2.00;99.90;;;;;;5133041;27;20054;-86
2022/04/03 02:51:28;;;;;;;6.55;4.40;;;-2.00;99.90;;;;;;5115593;27;20103;-87
2022/04/03 02:53:54;;;;;;;8.60;4.25;;;-2.00;99.90;;;;;;5115593;27;20050;-86
2022/04/03 02:56:22;;;;;;;7.82;4.38;;;-2.00;99.90;;;;;;5115473;27;20087;-86
2022/04/03 02:58:48;;;;;;;6.57;4.00;;;-1.90;99.90;;;;;;5115824;27;20054;-86
2022/04/03 03:01:18;;;;;;;6.88;4.45;;;-1.70;99.90;;;;;;5115943;27;20053;-88
2022/04/03 03:03:44;;;;;;;8.82;4.40;;;-1.60;99.90;;;;;;5115175;27;20468;-87
2022/04/03 03:06:14;;;;;;;9.48;4.50;;;-1.40;99.90;;;;;;5116044;27;20054;-87
2022/04/03 03:08:41;;;;;;;7.78;4.60;;;-1.30;99.90;;;;;;5132495;27;20648;-86
2022/04/03 03:11:07;;;;;;;7.22;4.22;;;-1.20;99.90;;;;;;5115851;27;20054;-87
2022/04/03 03:13:36;;;;;;;12.15;4.47;;;-1.00;99.90;;;;;;5115856;27;20047;-88
2022/04/03 03:16:03;;;;;;;7.32;5.00;;;-0.90;99.90;;;;;;5098622;27;20039;-88
2022/04/03 03:18:28;;;;;;;6.18;4.20;;;-0.80;99.90;;;;;;5116072;27;20114;-86
2022/04/03 03:20:54;;;;;;;6.13;4.05;;;-0.70;99.90;;;;;;5098424;27;20050;-86
2022/04/03 03:23:20;;;;;;;10.75;4.57;;;-0.60;99.90;;;;;;5133087;27;20051;-86
2022/04/03 03:25:48;;;;;;;9.70;4.60;;;-0.60;99.90;;;;;;5115343;27;20043;-87
2022/04/03 03:28:14;;;;;;;9.13;4.00;;;-0.50;99.90;;;;;;5116048;27;20058;-86
2022/04/03 03:30:39;;;;;;;6.63;4.35;;;-0.50;99.90;;;;;;5115314;27;20529;-86
2022/04/03 03:33:08;;;;;;;7.55;4.40;;;-0.40;99.90;;;;;;5132637;27;20047;-87
2022/04/03 03:35:40;;;;;;;7.72;4.07;;;-0.40;99.90;;;;;;5115802;27;20035;-88
2022/04/03 03:38:10;;;;;;;6.82;4.13;;;-0.40;99.90;;;;;;5115536;27;20123;-87
2022/04/03 03:40:39;;;;;;;7.13;3.90;;;-0.30;99.90;;;;;;5132954;27;20073;-87
2022/04/03 03:43:07;;;;;;;10.65;4.38;;;-0.20;99.90;;;;;;5115432;27;20039;-88
2022/04/03 03:45:36;;;;;;;7.03;4.35;;;-0.20;99.90;;;;;;5115768;27;20354;-87
2022/04/03 03:48:02;;;;;;;8.68;4.80;;;-0.20;99.90;;;;;;5131857;27;20187;-87
2022/04/03 03:50:28;;;;;;;13.40;4.55;;;-0.10;99.90;;;;;;5098711;27;20054;-88
2022/04/03 03:52:56;;;;;;;8.15;4.45;;;-0.10;99.90;;;;;;5114802;27;20454;-87
2022/04/03 03:55:22;;;;;;;6.25;4.32;;;-0.10;99.90;;;;;;5115291;27;20074;-88
2022/04/03 03:57:48;;;;;;;7.72;4.82;;;-0.20;99.90;;;;;;5098197;27;20090;-88
2022/04/03 04:00:20;;;;;;;5.78;4.35;;;-0.20;99.90;;;;;;5115534;27;20057;-87
2022/04/03 04:02:47;;;;;;;10.63;4.82;;;-0.20;99.90;;;;;;5133575;27;20135;-87
2022/04/03 04:05:20;;;;;;;10.10;4.88;;;-0.20;99.90;;;;;;5119065;27;20680;-87
2022/04/03 04:07:49;;;;;;;7.53;4.72;;;-0.20;99.90;;;;;;5118450;27;20043;-87
2022/04/03 04:10:16;;;;;;;9.85;4.90;;;-0.30;99.90;;;;;;5136130;27;20483;-87
2022/04/03 04:12:47;;;;;;;11.15;5.10;;;-0.30;99.90;;;;;;5118668;27;20082;-86
2022/04/03 04:15:16;;;;;;;8.88;4.75;;;-0.30;99.90;;;;;;5119088;27;20042;-87
2022/04/03 04:17:49;;;;;;;7.95;5.05;;;-0.40;99.90;;;;;;5118271;27;20050;-85
2022/04/03 04:20:19;;;;;;;9.90;4.97;;;-0.30;99.90;;;;;;5118670;27;20043;-87
2022/04/03 04:22:49;;;;;;;7.63;4.65;;;-0.30;99.90;;;;;;5118235;27;20054;-87
2022/04/03 04:25:16;;;;;;;7.78;4.93;;;-0.30;99.90;;;;;;5118705;27;20050;-88
2022/04/03 04:27:45;;;;;;;11.75;5.78;;;-0.30;99.90;;;;;;5118502;27;20046;-85
2022/04/03 04:30:13;;;;;;;8.27;5.00;;;-0.30;99.90;;;;;;5118735;27;20093;-88
2022/04/03 04:32:39;;;;;;;8.45;5.28;;;-0.30;99.90;;;;;;5118844;27;20077;-87
2022/04/03 04:35:05;;;;;;;8.30;5.00;;;-0.20;99.90;;;;;;5117717;27;20043;-86
2022/04/03 04:37:37;;;;;;;7.68;4.63;;;-0.30;99.90;;;;;;5135513;27;20050;-87
2022/04/03 04:40:05;;;;;;;6.45;4.35;;;-0.30;99.90;;;;;;5134834;27;20150;-86
2022/04/03 04:42:30;;;;;;;8.73;5.07;;;-0.40;99.90;;;;;;5101654;27;20053;-88
2022/04/03 04:44:59;;;;;;;8.18;5.03;;;-0.40;99.90;;;;;;5100863;27;20126;-87
2022/04/03 04:47:25;;;;;;;7.90;4.85;;;-0.40;99.90;;;;;;5117831;27;20472;-87
2022/04/03 04:49:50;;;;;;;9.48;5.30;;;-0.50;99.90;;;;;;5117523;27;20053;-87
2022/04/03 04:52:17;;;;;;;7.68;5.28;;;-0.60;99.90;;;;;;5118185;27;20049;-88
2022/04/03 04:54:46;;;;;;;7.05;4.45;;;-0.50;99.90;;;;;;5117952;27;20072;-87
2022/04/03 04:57:11;;;;;;;7.57;4.68;;;-0.50;99.90;;;;;;5114528;27;20063;-88
2022/04/03 04:59:37;;;;;;;6.60;4.45;;;-0.50;99.90;;;;;;5114726;27;20050;-87
2022/04/03 05:02:06;;;;;;;8.80;4.65;;;-0.60;99.90;;;;;;5114092;27;20043;-88
2022/04/03 05:04:35;;;;;;;8.93;4.65;;;-0.50;99.90;;;;;;5098243;27;20472;-88
2022/04/03 05:07:01;;;;;;;10.30;4.53;;;-0.40;99.90;;;;;;5113735;27;20047;-85
2022/04/03 05:09:30;;;;;;;7.95;4.68;;;-0.50;99.90;;;;;;5097513;27;20047;-88
2022/04/03 05:11:58;;;;;;;7.53;4.47;;;-0.50;99.90;;;;;;5131000;27;20443;-87
2022/04/03 05:14:29;;;;;;;6.60;4.38;;;-0.40;99.90;;;;;;5114078;27;20086;-87
2022/04/03 05:17:03;;;;;;;8.52;4.97;;;-0.30;99.90;;;;;;5131026;27;20050;-87
2022/04/03 05:19:28;;;;;;;8.18;4.97;;;-0.30;99.90;;;;;;5097389;27;20095;-87
2022/04/03 05:21:59;;;;;;;9.88;4.88;;;-0.30;99.90;;;;;;5113512;27;20047;-87
2022/04/03 05:24:24;;;;;;;6.20;4.45;;;-0.30;99.90;;;;;;5114171;27;20051;-87
2022/04/03 05:26:50;;;;;;;6.32;4.60;;;-0.40;99.90;;;;;;5113566;27;20051;-87
2022/04/03 05:29:18;;;;;;;9.48;4.47;;;-0.50;99.90;;;;;;5113807;27;20078;-86
2022/04/03 05:31:46;;;;;;;7.22;4.75;;;-0.60;99.90;;;;;;5113670;27;20051;-87
2022/04/03 05:34:12;;;;;;;8.13;4.65;;;-0.50;99.90;;;;;;5113879;27;20051;-87
2022/04/03 05:36:39;;;;;;;8.63;5.20;;;-0.70;99.90;;;;;;5113689;27;20053;-87
2022/04/03 05:39:06;;;;;;;8.95;4.75;;;-0.70;99.90;;;;;;5112979;27;20096;-87
2022/04/03 05:41:35;;;;;;;6.88;4.82;;;-0.80;99.90;;;;;;5113950;27;20047;-87
2022/04/03 05:44:01;;;;;;;7.65;4.40;;;-0.80;99.90;;;;;;5130267;27;20060;-87
2022/04/03 05:46:28;;;;;;;8.25;4.93;;;-0.90;99.90;;;;;;5130918;27;20047;-87
2022/04/03 05:48:53;;;;;;;8.35;5.10;;;-0.80;99.90;;;;;;5113194;27;20053;-87
2022/04/03 05:51:19;;;;;;;7.72;5.00;;;-0.80;99.90;;;;;;5113700;27;20423;-88
2022/04/03 05:53:48;;;;;;;7.43;4.72;;;-0.70;99.90;;;;;;5096557;27;20042;-87
2022/04/03 05:56:14;;;;;;;8.95;5.13;;;-0.60;99.90;;;;;;5130579;27;20070;-87
2022/04/03 05:58:39;;;;;;;6.45;4.18;;;-0.80;99.90;;;;;;5131241;27;20054;-88
2022/04/03 06:01:08;;;;;;;7.15;4.82;;;-0.60;99.90;;;;;;5113567;27;20046;-88
2022/04/03 06:03:38;;;;;;;6.72;4.60;;;-0.50;99.90;;;;;;5113780;27;20135;-87
2022/04/03 06:06:04;;;;;;;8.32;4.60;;;-0.60;99.90;;;;;;5112799;27;20070;-87
2022/04/03 06:08:31;;;;;;;5.47;4.30;;;-0.50;99.90;;;;;;5108173;28;20122;-87
2022/04/03 06:10:59;;;;;;;5.20;4.05;;;-0.50;99.90;;;;;;5075523;28;20044;-88
2022/04/03 06:13:27;;;;;;;6.45;4.38;;;-0.40;99.90;;;;;;5092786;28;20130;-88
2022/04/03 06:15:52;;;;;;;9.10;4.65;;;-0.30;99.90;;;;;;5075363;28;20051;-88
2022/04/03 06:18:18;;;;;;;6.70;4.10;;;-0.10;99.90;;;;;;5093126;28;20059;-88
2022/04/03 06:20:45;;;;;;;6.88;4.30;;;0.10;99.90;;;;;;5092884;28;20083;-87
2022/04/03 06:23:22;;;;;;;7.05;4.45;;;0.10;99.90;;;;;;5091892;28;20058;-88
2022/04/03 06:25:52;;;;;;;8.43;4.50;;;0.10;99.90;;;;;;5091886;28;20085;-87
2022/04/03 06:28:19;;;;;;;6.93;4.72;;;0.10;99.90;;;;;;5092678;28;20061;-87
2022/04/03 06:30:48;;;;;;;6.22;4.50;;;0.10;99.90;;;;;;5092497;28;20043;-88
2022/04/03 06:33:16;;;;;;;6.95;4.22;;;0.10;99.90;;;;;;5092239;28;20052;-86
2022/04/03 06:35:43;;;;;;;6.25;4.18;;;0.00;99.90;;;;;;5092317;28;20066;-87
2022/04/03 06:38:09;;;;;;;6.97;4.47;;;0.10;99.90;;;;;;5108988;28;20144;-87
2022/04/03 06:40:37;;;;;;;10.02;4.30;;;0.20;99.90;;;;;;5092620;28;20233;-88
2022/04/03 06:43:03;;;;;;;5.22;3.97;;;0.30;99.90;;;;;;5075056;28;20112;-87
2022/04/03 06:45:30;;;;;;;6.82;4.28;;;0.30;99.90;;;;;;5092549;28;20059;-88
2022/04/03 06:48:00;;;;;;;5.40;3.90;;;0.50;99.90;;;;;;5091946;28;20134;-88
2022/04/03 06:50:30;;;;;;;7.63;4.22;;;0.50;99.90;;;;;;5092960;28;20131;-88
2022/04/03 06:52:55;;;;;;;5.60;4.22;;;0.50;99.90;;;;;;5092678;27;20126;-88
2022/04/03 06:55:21;;;;;;;8.73;4.18;;;0.60;99.90;;;;;;5114557;27;20280;-87
2022/04/03 06:57:47;;;;;;;10.98;5.32;;;0.50;99.90;;;;;;5116472;27;20050;-88
2022/04/03 07:00:21;;;;;;;6.07;4.55;;;0.90;99.90;;;;;;5115906;27;20374;-88
2022/04/03 07:02:49;;;;;;;14.60;6.90;;;1.00;99.90;;;;;;5133030;27;20081;-89
2022/04/03 07:05:16;;;;;;;7.10;5.40;;;1.40;99.90;;;;;;5115961;27;20130;-87
2022/04/03 07:07:41;;;;;;;5.65;4.00;;;1.60;99.90;;;;;;5116182;27;20046;-87
2022/04/03 07:10:10;;;;;;;6.68;4.40;;;1.60;99.90;;;;;;5098363;27;20042;-88
2022/04/03 07:12:37;;;;;;;8.80;5.75;;;1.50;99.90;;;;;;5133442;27;20050;-89
2022/04/03 07:15:11;;;;;;;7.30;3.80;;;1.50;99.90;;;;;;5115463;27;20042;-88
2022/04/03 07:17:40;;;;;;;9.80;3.90;;;1.50;99.90;;;;;;5116626;27;20053;-89
2022/04/03 07:20:08;;;;;;;6.80;3.38;;;1.40;99.90;;;;;;5115548;27;20059;-89
2022/04/03 07:22:36;;;;;;;8.20;3.42;;;1.50;99.90;;;;;;5133356;27;20047;-88
2022/04/03 07:25:03;;;;;;;5.70;3.53;;;1.50;99.90;;;;;;5115045;27;20092;-86
2022/04/03 07:27:30;;;;;;;4.40;3.50;;;1.50;99.90;;;;;;5133222;27;20061;-88
2022/04/03 07:29:59;;;;;;;7.25;3.05;;;1.60;99.90;;;;;;5098557;27;20046;-88
2022/04/03 07:32:25;;;;;;;2.92;2.50;;;1.60;99.90;;;;;;5132819;27;20042;-87
2022/04/03 07:34:51;;;;;;;7.05;2.50;;;1.80;99.90;;;;;;5132883;27;20088;-87
2022/04/03 07:37:16;;;;;;;6.07;2.60;;;2.10;99.90;;;;;;5116386;27;20038;-88
2022/04/03 07:39:43;;;;;;;4.15;2.30;;;2.30;99.90;;;;;;5119548;27;20856;-88
2022/04/03 07:42:08;;;;;;;6.10;3.83;;;2.60;99.90;;;;;;5136062;27;20102;-88
2022/04/03 07:44:34;;;;;;;5.82;2.15;;;2.70;99.90;;;;;;5119994;27;20051;-88
2022/04/03 07:47:00;;;;;;;4.78;2.03;;;2.80;99.90;;;;;;5119559;27;20772;-89
2022/04/03 07:49:27;;;;;;;4.25;1.77;;;2.90;99.90;;;;;;5120163;27;20395;-88
2022/04/03 07:51:53;;;;;;;4.38;2.30;;;3.10;99.90;;;;;;5118985;27;20547;-85
2022/04/03 07:54:18;;;;;;;11.65;2.80;;;3.20;99.90;;;;;;5119730;27;20054;-86
2022/04/03 07:56:47;;;;;;;4.10;1.85;;;3.30;99.90;;;;;;5101911;27;20078;-86
2022/04/03 07:59:13;;;;;;;5.75;2.60;;;3.40;99.90;;;;;;5102317;27;20151;-88
2022/04/03 08:01:39;;;;;;;3.47;1.58;;;3.60;99.90;;;;;;5119452;27;20058;-88
2022/04/03 08:04:10;;;;;;;5.00;1.65;;;3.80;99.90;;;;;;5135655;27;20042;-87
2022/04/03 08:06:38;;;;;;;2.88;1.50;;;4.00;99.90;;;;;;5119167;27;20084;-87
2022/04/03 08:09:07;;;;;;;2.50;1.98;;;4.40;99.90;;;;;;5118304;27;20604;-87
2022/04/03 08:11:33;;;;;;;2.58;1.45;;;4.60;99.90;;;;;;5119094;27;20046;-86
2022/04/03 08:13:59;;;;;;;4.68;1.55;;;4.80;99.90;;;;;;5135698;27;20142;-85
2022/04/03 08:16:29;;;;;;;6.03;2.17;;;4.90;99.90;;;;;;5118796;27;20038;-86
2022/04/03 08:18:57;;;;;;;5.57;2.25;;;4.90;99.90;;;;;;5118936;27;20082;-86
2022/04/03 08:21:23;;;;;;;5.50;2.00;;;5.10;99.90;;;;;;5101765;27;20042;-86
2022/04/03 08:23:49;;;;;;;2.70;1.50;;;5.00;99.90;;;;;;5118745;27;20480;-86
2022/04/03 08:26:17;;;;;;;6.80;1.77;;;5.10;99.90;;;;;;5118261;27;20043;-88
2022/04/03 08:28:43;;;;;;;5.13;1.80;;;5.30;99.90;;;;;;5118455;27;20110;-85
2022/04/03 08:31:09;;;;;;;4.95;1.60;;;5.30;99.90;;;;;;5118018;27;20099;-86
2022/04/03 08:33:39;;;;;;;4.03;1.65;;;5.60;99.90;;;;;;5135758;27;20051;-87
2022/04/03 08:36:05;;;;;;;4.32;1.80;;;5.80;99.90;;;;;;5100921;27;20034;-86
2022/04/03 08:38:31;;;;;;;5.05;1.50;;;5.90;99.90;;;;;;5118420;27;20051;-87
2022/04/03 08:41:01;;;;;;;4.25;1.25;;;6.00;99.90;;;;;;5117813;27;20045;-87
2022/04/03 08:43:32;;;;;;;3.20;1.60;;;6.10;99.90;;;;;;5101617;27;20051;-87
2022/04/03 08:46:01;;;;;;;3.65;1.23;;;6.10;99.90;;;;;;5135560;27;20110;-87
2022/04/03 08:48:31;;;;;;;6.82;1.45;;;6.00;99.90;;;;;;5118161;27;20072;-87
2022/04/03 08:51:02;;;;;;;4.20;1.50;;;5.80;99.90;;;;;;5135148;27;20129;-86
2022/04/03 08:53:32;;;;;;;5.35;1.48;;;5.80;99.90;;;;;;5135541;27;20118;-87
2022/04/03 08:55:59;;;;;;;5.60;1.55;;;6.10;99.90;;;;;;5134418;27;20193;-87
2022/04/03 08:58:30;;;;;;;3.88;1.75;;;6.30;99.90;;;;;;5135189;27;20039;-87
2022/04/03 09:01:00;;;;;;;3.35;1.13;;;6.50;99.70;;;;;;5117808;27;20050;-86
2022/04/03 09:03:33;;;;;;;3.03;1.27;;;6.40;98.90;;;;;;5118097;27;20560;-86
2022/04/03 09:06:34;;;;;;;2.70;1.10;;;6.50;99.30;;;;;;5116964;27;20484;-86
2022/04/03 09:09:02;;;;;;;2.20;0.77;;;6.60;94.00;;;;;;5049315;27;20119;-85
2022/04/03 09:11:30;;;;;;;3.08;0.70;;;6.70;95.80;;;;;;5100721;27;20042;-86
2022/04/03 09:13:56;;;;;;;2.88;0.70;;;6.90;94.40;;;;;;5100564;27;20050;-86
2022/04/03 09:16:40;;;;;;;2.00;0.57;;;6.80;94.40;;;;;;5134024;27;20571;-86
2022/04/03 09:19:09;;;;;;;1.88;0.77;;;7.00;90.80;;;;;;5133964;27;20133;-86
2022/04/03 09:21:37;;;;;;;4.78;1.17;;;7.20;92.90;;;;;;5117364;27;20510;-85
2022/04/03 09:24:11;;;;;;;4.38;1.42;;;7.50;92.90;;;;;;5116358;27;20568;-86
2022/04/03 09:26:40;;;;;;;2.22;1.10;;;7.80;91.40;;;;;;5134451;27;20042;-85
2022/04/03 09:29:06;;;;;;;2.63;1.00;;;8.00;91.60;;;;;;5133523;27;20052;-85
2022/04/03 09:31:32;;;;;;;4.15;1.60;;;8.10;91.40;;;;;;5134252;27;20034;-86
2022/04/03 09:34:02;;;;;;;2.78;1.15;;;8.30;91.20;;;;;;5116951;27;20046;-86
2022/04/03 09:36:30;;;;;;;2.88;1.27;;;8.60;90.60;;;;;;5133936;27;20039;-86
2022/04/03 09:39:07;;;;;;;3.25;1.17;;;8.90;90.00;;;;;;5116979;27;20049;-86
2022/04/03 09:41:52;;;;;;;4.63;0.90;;;9.50;88.40;;;;;;5116681;27;20126;-86
2022/04/03 09:44:23;;;;;;;2.25;0.80;;;9.90;84.10;;;;;;5119085;27;20498;-85
2022/04/03 09:47:22;;;;;;;1.88;1.10;;;9.70;81.80;;;;;;5116947;27;20107;-85
2022/04/03 09:49:55;;;;;;;4.97;1.30;;;9.20;75.50;;;;;;5133883;27;20514;-85
2022/04/03 09:52:33;;;;;;;5.30;0.95;;;8.80;83.30;;;;;;5103768;27;20506;-85
2022/04/03 09:55:00;;;;;;;5.13;1.35;;;8.60;79.80;;;;;;5113148;27;20039;-85
2022/04/03 09:57:25;;;;;;;1.83;1.08;;;8.50;85.00;;;;;;5112217;27;20047;-85
2022/04/03 09:59:54;;;;;;;5.18;0.88;;;8.50;84.60;;;;;;5095458;27;20043;-85
2022/04/03 10:02:24;;;;;;;1.27;0.90;;;8.50;83.70;;;;;;5112603;27;20051;-85
2022/04/03 10:05:00;;;;;;;5.05;0.85;;;8.60;83.50;;;;;;5096274;27;20054;-85
2022/04/03 10:07:26;;;;;;;3.83;0.90;;;8.70;81.30;;;;;;5095030;27;20500;-85
2022/04/03 10:09:55;;;;;;;6.38;4.20;;;8.60;83.40;;;;;;5113219;27;20042;-85
2022/04/03 10:12:22;;;;;;;4.57;2.10;;;8.60;81.90;;;;;;5133209;27;20129;-85
2022/04/03 10:14:50;;;;;;;3.80;0.85;;;8.70;82.10;;;;;;5133200;27;20095;-85
2022/04/03 10:17:20;;;;;;;4.07;1.73;;;9.10;79.90;;;;;;5098889;27;20046;-84
2022/04/03 10:19:51;;;;;;;6.57;3.35;;;8.90;81.00;;;;;;5116281;27;20429;-84
2022/04/03 10:22:30;;;;;;;4.15;2.33;;;8.60;81.00;;;;;;5115687;27;20046;-85
2022/04/03 10:25:03;;;;;;;3.88;1.20;;;8.10;83.20;;;;;;5133254;27;20047;-86
2022/04/03 10:27:39;;;;;;;3.40;1.35;;;7.60;87.40;;;;;;5116358;27;20061;-88
2022/04/03 10:30:16;;;;;;;3.17;1.00;;;6.90;91.80;;;;;;5116087;27;20054;-87
2022/04/03 10:33:01;;;;;;;4.20;1.20;;;6.30;93.90;;;;;;5116116;27;20280;-87
2022/04/03 10:35:29;;;;;;;4.88;1.70;;;6.00;96.00;;;;;;5132810;27;20045;-88
2022/04/03 10:38:03;;;;;;;8.63;3.63;;;5.80;97.70;;;;;;5116868;27;20046;-88
2022/04/03 10:40:33;;;;;;;7.65;2.83;;;5.80;99.20;;;;;;5116206;27;20042;-88
2022/04/03 10:43:06;;;;;;;5.57;1.45;;;6.50;99.90;;;;;;5116759;27;20042;-88
2022/04/03 10:45:37;;;;;;;4.93;1.30;;;8.60;99.90;;;;;;5116375;27;20043;-88
2022/04/03 10:48:21;;;;;;;1.40;0.90;;;10.20;95.80;;;;;;5116349;27;20107;-87
2022/04/03 10:51:04;;;;;;;5.03;1.00;;;10.30;92.10;;;;;;5133148;27;20129;-86
2022/04/03 10:53:42;;;;;;;4.13;1.23;;;9.80;86.90;;;;;;5095272;28;20142;-87
2022/04/03 10:56:23;;;;;;;9.60;3.83;;;9.30;89.10;;;;;;5111461;27;20134;-87
2022/04/03 10:58:53;;;;;;;4.00;1.80;;;9.90;89.90;;;;;;5095500;28;20055;-86
2022/04/03 11:01:29;;;;;;;3.47;1.08;;;11.70;84.30;;;;;;5095008;28;20046;-87
2022/04/03 11:03:59;;;;;;;4.38;0.88;;;12.50;75.90;;;;;;5095354;28;20085;-86
2022/04/03 11:06:29;;;;;;;2.00;0.65;;;12.60;75.80;;;;;;5111687;28;20116;-86
2022/04/03 11:09:07;;;;;;;2.65;1.23;;;13.10;73.70;;;;;;5100354;28;20134;-87
2022/04/03 11:12:00;;;;;;;1.85;0.60;;;13.00;70.90;;;;;;5113058;27;20484;-87
2022/04/03 11:14:51;;;;;;;1.35;0.57;;;12.60;67.00;;;;;;5098931;27;20054;-86
2022/04/03 11:17:37;;;;;;;1.95;0.52;;;11.90;60.10;;;;;;5098974;27;20494;-86
2022/04/03 11:20:04;;;;;;;1.75;0.75;;;11.10;65.60;;;;;;5115492;27;20059;-85
2022/04/03 11:22:31;;;;;;;1.23;0.40;;;10.30;65.70;;;;;;5115885;27;20039;-85
2022/04/03 11:24:57;;;;;;;5.45;2.30;;;9.60;65.90;;;;;;5099537;27;20380;-86
2022/04/03 11:27:23;;;;;;;2.55;0.95;;;9.50;70.40;;;;;;5098827;27;20317;-86
2022/04/03 11:29:49;;;;;;;3.85;0.90;;;11.10;70.60;;;;;;5081792;27;20565;-85
2022/04/03 11:32:21;;;;;;;3.13;1.20;;;13.10;65.80;;;;;;5115480;27;20091;-86
2022/04/03 11:35:01;;;;;;;3.92;1.08;;;13.50;61.20;;;;;;5132984;27;20043;-85
2022/04/03 11:37:30;;;;;;;2.38;1.75;;;12.60;59.00;;;;;;5098494;27;20078;-85
2022/04/03 11:39:57;;;;;;;5.43;0.90;;;12.00;62.80;;;;;;5099041;27;20074;-85
2022/04/03 11:42:23;;;;;;;3.35;1.30;;;11.20;63.50;;;;;;5098534;27;20047;-85
2022/04/03 11:44:53;;;;;;;4.05;0.73;;;10.60;63.90;;;;;;5098568;27;20084;-85
2022/04/03 11:47:21;;;;;;;2.28;1.17;;;10.20;64.80;;;;;;5098339;27;20100;-85
2022/04/03 11:50:11;;;;;;;6.70;1.33;;;10.10;66.90;;;;;;5115619;27;20078;-85
2022/04/03 11:52:40;;;;;;;6.07;3.17;;;9.80;67.20;;;;;;5130498;27;20042;-85
2022/04/03 11:55:12;;;;;;;3.28;1.60;;;9.80;70.50;;;;;;5136012;27;20053;-85
2022/04/03 11:57:42;;;;;;;3.53;0.93;;;10.30;69.00;;;;;;5135409;27;20054;-86
2022/04/03 12:00:09;;;;;;;3.33;0.93;;;11.00;65.30;;;;;;5118622;27;20050;-85
2022/04/03 12:02:37;;;;;;;2.78;1.05;;;11.80;65.40;;;;;;5136050;27;20038;-85
2022/04/03 12:05:03;;;;;;;2.47;0.70;;;13.50;60.50;;;;;;5135896;27;20159;-85
2022/04/03 12:07:28;;;;;;;5.22;0.95;;;14.90;57.10;;;;;;5118257;27;20058;-85
2022/04/03 12:09:56;;;;;;;3.60;1.20;;;16.40;55.00;;;;;;5118573;27;20051;-86
2022/04/03 12:12:24;;;;;;;2.25;0.90;;;17.00;50.10;;;;;;5118127;27;20394;-86
2022/04/03 12:14:50;;;;;;;1.35;0.50;;;16.90;47.60;;;;;;5118170;27;20511;-85
2022/04/03 12:17:23;;;;;;;4.43;1.70;;;16.50;47.00;;;;;;5101090;27;20054;-85
2022/04/03 12:19:51;;;;;;;3.72;0.63;;;16.20;45.90;;;;;;5135416;27;20099;-86
2022/04/03 12:22:20;;;;;;;3.03;0.43;;;15.40;46.60;;;;;;5117910;27;20047;-85
2022/04/03 12:24:49;;;;;;;2.17;0.60;;;14.60;46.50;;;;;;5134847;27;20045;-85
2022/04/03 12:27:22;;;;;;;1.73;0.63;;;14.30;47.50;;;;;;5117906;27;20046;-85
2022/04/03 12:29:53;;;;;;;1.98;0.60;;;14.00;47.80;;;;;;5118303;27;20157;-85
2022/04/03 12:32:27;;;;;;;1.92;0.50;;;14.10;45.60;;;;;;5135041;27;20043;-85
2022/04/03 12:34:53;;;;;;;1.95;0.70;;;14.10;46.10;;;;;;5118205;27;20055;-85
2022/04/03 12:37:19;;;;;;;2.05;0.50;;;13.30;50.00;;;;;;5134816;27;20043;-85
2022/04/03 12:39:52;;;;;;;1.02;0.60;;;12.20;52.40;;;;;;5118035;27;20051;-85
2022/04/03 12:42:19;;;;;;;1.27;0.50;;;11.60;54.80;;;;;;5117393;27;20058;-85
2022/04/03 12:44:52;;;;;;;2.80;0.60;;;11.00;57.00;;;;;;5117758;27;20614;-86
2022/04/03 12:47:31;;;;;;;2.25;0.85;;;10.80;57.20;;;;;;5134659;27;20099;-86
2022/04/03 12:50:06;;;;;;;2.22;1.08;;;10.80;57.10;;;;;;5117829;27;20183;-86
2022/04/03 12:52:48;;;;;;;1.63;0.80;;;11.00;56.60;;;;;;5134334;27;20039;-85
2022/04/03 12:55:23;;;;;;;1.67;0.52;;;11.60;53.10;;;;;;5117341;27;20091;-85
2022/04/03 13:01:12;;;;;;;1.63;0.50;;;13.90;46.70;;;;;;5131596;27;20061;-86
2022/04/03 13:03:51;;;;;;;0.85;0.60;;;14.30;44.60;;;;;;5114142;27;20054;-85